Time;durP1;ratioP1;P1;durP2;ratioP2;P2;SDS_P1;SDS_P2;PMS_P1;PMS_P2;Temp;Humidity;BMP_temperature;BMP_pressure;BME280_temperature;BME280_humidity;BME280_pressure;Samples;Min_cycle;Max_cycle;Signal;HPM_P1;HPM_P2
2024/02/08 00:00:19;;;;;;;46.50;25.23;;;;;;;9.09;100.00;96650.25;4988136;28;20049;-62
2024/02/08 00:02:44;;;;;;;48.92;13.93;;;;;;;9.26;100.00;96660.34;4989456;28;20026;-62
2024/02/08 00:05:10;;;;;;;70.90;49.35;;;;;;;8.78;100.00;96664.66;4989707;28;20122;-63
2024/02/08 00:07:35;;;;;;;64.68;16.58;;;;;;;8.80;100.00;96662.88;4987855;28;20032;-62
2024/02/08 00:10:01;;;;;;;60.33;19.17;;;;;;;8.75;100.00;96661.28;4987731;28;20350;-62
2024/02/08 00:12:27;;;;;;;54.42;16.23;;;;;;;9.02;100.00;96653.88;4985986;28;20446;-63
2024/02/08 00:14:52;;;;;;;44.65;14.52;;;;;;;9.12;100.00;96655.41;4989647;28;20556;-59
2024/02/08 00:17:20;;;;;;;35.67;13.75;;;;;;;9.19;100.00;96651.81;4989514;28;20068;-61
2024/02/08 00:19:48;;;;;;;40.88;16.85;;;;;;;8.96;100.00;96645.34;4988199;28;21439;-63
2024/02/08 00:22:14;;;;;;;33.95;10.98;;;;;;;8.90;100.00;96645.44;4985913;28;20049;-62
2024/02/08 00:24:39;;;;;;;67.88;20.23;;;;;;;8.91;100.00;96647.13;4988661;28;20022;-62
2024/02/08 00:27:05;;;;;;;44.03;16.83;;;;;;;8.89;100.00;96648.91;4985992;28;20068;-62
2024/02/08 00:29:30;;;;;;;59.88;15.00;;;;;;;8.90;100.00;96639.41;4985014;28;20402;-63
2024/02/08 00:31:55;;;;;;;58.58;51.78;;;;;;;8.56;100.00;96640.84;4986244;28;20402;-63
2024/02/08 00:34:22;;;;;;;33.70;13.55;;;;;;;8.73;100.00;96644.00;4990059;28;20477;-63
2024/02/08 00:36:49;;;;;;;48.47;20.02;;;;;;;8.70;100.00;96635.44;4986864;28;20413;-62
2024/02/08 00:39:15;;;;;;;31.83;13.40;;;;;;;8.74;100.00;96624.13;4988039;28;20517;-62
2024/02/08 00:41:47;;;;;;;67.63;33.30;;;;;;;8.76;100.00;96640.47;4987007;28;20120;-63
2024/02/08 00:44:12;;;;;;;81.18;73.15;;;;;;;8.91;100.00;96631.56;4988910;28;20080;-62
2024/02/08 00:46:38;;;;;;;66.45;29.02;;;;;;;8.72;100.00;96623.28;4985817;28;20050;-64
2024/02/08 00:49:03;;;;;;;40.38;14.68;;;;;;;8.61;100.00;96633.00;4987355;28;20129;-61
2024/02/08 00:51:31;;;;;;;39.10;21.58;;;;;;;8.81;100.00;96627.44;4987460;28;20045;-62
2024/02/08 00:53:59;;;;;;;45.75;21.73;;;;;;;9.15;100.00;96624.22;4988123;28;20030;-62
2024/02/08 00:56:25;;;;;;;56.25;36.13;;;;;;;8.84;100.00;96615.28;4987029;28;20422;-60
2024/02/08 00:58:51;;;;;;;36.58;19.40;;;;;;;8.84;100.00;96620.47;4987529;28;20022;-61
2024/02/08 01:01:17;;;;;;;43.28;19.77;;;;;;;9.01;100.00;96619.28;4987128;28;20039;-60
2024/02/08 01:03:43;;;;;;;70.20;16.10;;;;;;;9.25;100.00;96609.34;4982554;28;20379;-60
2024/02/08 01:06:09;;;;;;;58.10;27.60;;;;;;;9.02;100.00;96610.63;4982964;28;20062;-60
2024/02/08 01:08:34;;;;;;;64.20;16.27;;;;;;;9.21;100.00;96615.47;4986816;28;20109;-59
2024/02/08 01:11:00;;;;;;;57.85;14.13;;;;;;;8.92;100.00;96607.38;4989833;28;20034;-61
2024/02/08 01:13:27;;;;;;;111.05;100.80;;;;;;;8.99;100.00;96608.94;4986841;28;20347;-60
2024/02/08 01:15:53;;;;;;;73.20;49.67;;;;;;;8.85;100.00;96611.81;4989620;28;20052;-59
2024/02/08 01:18:20;;;;;;;55.83;15.23;;;;;;;8.85;100.00;96608.38;4988470;28;20026;-59
2024/02/08 01:20:46;;;;;;;68.15;21.77;;;;;;;8.96;100.00;96611.63;4986351;28;20048;-59
2024/02/08 01:23:12;;;;;;;48.47;20.98;;;;;;;9.02;100.00;96609.78;4986532;28;20023;-60
2024/02/08 01:25:37;;;;;;;75.00;30.83;;;;;;;9.06;100.00;96609.69;4985219;28;20040;-60
2024/02/08 01:28:03;;;;;;;48.70;14.43;;;;;;;8.89;100.00;96610.03;4986801;28;20044;-60
2024/02/08 01:30:29;;;;;;;47.78;24.20;;;;;;;9.14;100.00;96609.56;4985587;28;20038;-59
2024/02/08 01:32:55;;;;;;;86.05;61.90;;;;;;;9.07;100.00;96611.41;4985153;28;20064;-61
2024/02/08 01:35:21;;;;;;;48.10;19.95;;;;;;;9.25;100.00;96604.16;4986205;28;20062;-60
2024/02/08 01:37:47;;;;;;;76.40;16.45;;;;;;;9.32;100.00;96602.28;4984859;28;20018;-59
2024/02/08 01:40:19;;;;;;;41.25;13.85;;;;;;;9.35;100.00;96610.84;4986557;28;20030;-59
2024/02/08 01:42:46;;;;;;;75.97;27.75;;;;;;;9.18;100.00;96598.22;4986169;28;20113;-62
2024/02/08 01:45:38;;;;;;;51.60;22.95;;;;;;;9.35;100.00;96602.19;4986941;28;20492;-58
2024/02/08 01:48:12;;;;;;;118.85;103.50;;;;;;;9.16;100.00;96594.78;4986136;28;20030;-61
2024/02/08 01:50:40;;;;;;;54.42;13.10;;;;;;;9.40;100.00;96590.00;4984437;28;20579;-61
2024/02/08 01:53:13;;;;;;;45.97;15.52;;;;;;;9.11;100.00;96587.13;4986037;28;20465;-59
2024/02/08 01:55:39;;;;;;;66.60;17.05;;;;;;;8.97;100.00;96595.16;4983739;28;20541;-60
2024/02/08 01:58:07;;;;;;;67.07;32.38;;;;;;;9.27;100.00;96596.34;4989872;28;20658;-62
2024/02/08 02:00:37;;;;;;;121.32;108.35;;;;;;;9.07;100.00;96600.16;4985233;28;20053;-62
2024/02/08 02:03:15;;;;;;;41.28;14.38;;;;;;;9.28;100.00;96592.84;4986702;28;20022;-61
2024/02/08 02:05:46;;;;;;;77.35;17.75;;;;;;;9.32;100.00;96584.94;4985343;28;20034;-62
2024/02/08 02:08:17;;;;;;;93.97;83.85;;;;;;;9.40;100.00;96590.00;4986031;28;20109;-60
2024/02/08 02:10:52;;;;;;;64.68;19.77;;;;;;;9.33;100.00;96578.91;4991505;28;20115;-63
2024/02/08 02:13:18;;;;;;;47.95;31.45;;;;;;;9.11;100.00;96583.66;4986554;28;20072;-58
2024/02/08 02:15:44;;;;;;;100.45;85.10;;;;;;;9.08;100.00;96581.13;4986319;28;20040;-61
2024/02/08 02:18:12;;;;;;;54.00;14.27;;;;;;;9.09;100.00;96591.47;4987785;28;20026;-61
2024/02/08 02:20:38;;;;;;;59.65;29.65;;;;;;;9.13;100.00;96594.00;4986704;28;20513;-63
2024/02/08 02:23:04;;;;;;;40.05;12.25;;;;;;;9.30;100.00;96588.47;4984943;28;20030;-60
2024/02/08 02:25:33;;;;;;;56.10;25.73;;;;;;;9.65;100.00;96594.63;4985908;28;20042;-60
2024/02/08 02:28:00;;;;;;;65.53;37.15;;;;;;;9.57;100.00;96583.59;4985880;28;20041;-62
2024/02/08 02:30:29;;;;;;;55.50;35.47;;;;;;;9.27;100.00;96585.97;4993682;28;20033;-60
2024/02/08 02:32:59;;;;;;;69.57;47.10;;;;;;;9.51;100.00;96590.59;4984797;28;20042;-60
2024/02/08 02:35:26;;;;;;;56.58;33.38;;;;;;;9.33;100.00;96588.41;4986575;28;20045;-60
2024/02/08 02:37:51;;;;;;;128.77;95.43;;;;;;;9.60;100.00;96588.69;4983735;28;20042;-60
2024/02/08 02:40:23;;;;;;;49.88;31.63;;;;;;;9.18;100.00;96581.81;4984414;28;20021;-62
2024/02/08 02:42:50;;;;;;;63.97;23.90;;;;;;;9.62;100.00;96573.97;4983972;28;20037;-59
2024/02/08 02:45:21;;;;;;;47.42;16.65;;;;;;;9.45;100.00;96580.38;4984362;28;20037;-62
2024/02/08 02:47:48;;;;;;;61.50;14.55;;;;;;;9.45;100.00;96577.78;4986226;28;20045;-61
2024/02/08 02:50:16;;;;;;;47.55;13.55;;;;;;;9.63;100.00;96583.44;4985949;28;20044;-63
2024/02/08 02:52:43;;;;;;;110.35;80.90;;;;;;;9.61;100.00;96574.81;4984645;28;20112;-60
2024/02/08 02:55:09;;;;;;;63.72;52.05;;;;;;;9.62;100.00;96571.38;4986560;28;20022;-61
2024/02/08 02:57:36;;;;;;;49.33;21.45;;;;;;;9.40;100.00;96569.25;4985720;28;20129;-63
2024/02/08 03:00:03;;;;;;;50.25;15.68;;;;;;;9.48;100.00;96569.06;4985089;28;20061;-61
2024/02/08 03:02:28;;;;;;;35.97;12.60;;;;;;;9.51;100.00;96574.19;4988524;28;20120;-62
2024/02/08 03:04:54;;;;;;;73.55;19.73;;;;;;;9.06;100.00;96569.94;4986369;28;20112;-61
2024/02/08 03:07:20;;;;;;;39.15;15.27;;;;;;;9.28;100.00;96577.28;4987471;28;20078;-63
2024/02/08 03:09:46;;;;;;;82.07;47.03;;;;;;;9.69;100.00;96566.88;4984838;28;20022;-62
2024/02/08 03:12:12;;;;;;;99.55;71.80;;;;;;;9.48;100.00;96577.72;4985199;28;20474;-62
2024/02/08 03:14:57;;;;;;;35.78;13.60;;;;;;;9.40;100.00;96577.03;4987340;28;20534;-60
2024/02/08 03:17:22;;;;;;;54.03;37.70;;;;;;;9.38;100.00;96571.88;4987103;28;20526;-63
2024/02/08 03:19:49;;;;;;;62.20;14.40;;;;;;;9.20;100.00;96572.22;4983215;28;20030;-61
2024/02/08 03:22:15;;;;;;;45.83;12.98;;;;;;;9.38;100.00;96579.66;4983870;28;20049;-61
2024/02/08 03:24:40;;;;;;;43.28;15.25;;;;;;;9.32;100.00;96571.16;4983322;28;20018;-61
2024/02/08 03:27:07;;;;;;;44.85;13.63;;;;;;;9.45;100.00;96575.19;4983678;28;20039;-62
2024/02/08 03:29:34;;;;;;;50.40;20.98;;;;;;;9.42;100.00;96567.47;4985559;28;20034;-61
2024/02/08 03:31:59;;;;;;;56.03;22.38;;;;;;;9.32;100.00;96571.97;4982375;28;20468;-61
2024/02/08 03:34:29;;;;;;;124.63;79.95;;;;;;;9.47;100.00;96568.19;4986271;28;20474;-61
2024/02/08 03:36:56;;;;;;;74.63;13.00;;;;;;;9.24;100.00;96569.56;4982174;28;20066;-61
2024/02/08 03:39:27;;;;;;;43.25;13.30;;;;;;;9.32;100.00;96569.38;4985737;28;20045;-60
2024/02/08 03:41:58;;;;;;;71.23;14.70;;;;;;;9.36;100.00;96567.59;4982230;28;20042;-61
2024/02/08 03:44:24;;;;;;;44.90;36.72;;;;;;;9.43;100.00;96561.38;4984634;28;20688;-62
2024/02/08 03:46:52;;;;;;;55.45;13.73;;;;;;;9.50;100.00;96564.69;4980953;28;20526;-60
2024/02/08 03:49:19;;;;;;;82.88;55.95;;;;;;;9.57;100.00;96558.47;4984791;28;20068;-62
2024/02/08 03:51:47;;;;;;;47.05;14.20;;;;;;;9.98;100.00;96567.97;4983553;28;20069;-61
2024/02/08 03:54:16;;;;;;;80.40;65.97;;;;;;;9.64;100.00;96559.19;4984675;28;20026;-60
2024/02/08 03:56:49;;;;;;;33.10;19.17;;;;;;;9.56;100.00;96559.38;4983017;28;20319;-61
2024/02/08 03:59:26;;;;;;;77.90;54.28;;;;;;;9.99;100.00;96559.28;4984260;28;20049;-59
2024/02/08 04:02:00;;;;;;;63.38;15.13;;;;;;;9.88;100.00;96556.94;4983435;28;20530;-59
2024/02/08 04:04:34;;;;;;;32.13;15.05;;;;;;;9.66;100.00;96569.53;4984621;28;20525;-59
2024/02/08 04:07:14;;;;;;;40.20;15.05;;;;;;;9.66;100.00;96553.97;4982615;28;20277;-61
2024/02/08 04:09:48;;;;;;;33.80;10.55;;;;;;;10.16;100.00;96562.31;4985256;28;20047;-62
2024/02/08 04:56:10;;;;;;;36.88;11.43;;;;;;;9.80;100.00;96558.84;4982344;28;20046;-61
2024/02/08 04:58:39;;;;;;;62.40;22.58;;;;;;;9.72;100.00;96553.81;4984909;28;20032;-62
2024/02/08 05:01:08;;;;;;;39.15;12.43;;;;;;;9.79;100.00;96557.16;4989277;28;20038;-62
2024/02/08 05:03:37;;;;;;;42.40;22.50;;;;;;;9.93;100.00;96557.66;4983856;28;20446;-60
2024/02/08 05:06:11;;;;;;;69.82;16.58;;;;;;;9.85;100.00;96554.41;4980588;28;20069;-61
2024/02/08 05:08:41;;;;;;;34.58;11.52;;;;;;;9.85;100.00;96564.78;4983984;28;20085;-61
2024/02/08 05:11:10;;;;;;;55.80;35.38;;;;;;;9.93;100.00;96549.00;4982941;28;20550;-61
2024/02/08 05:13:39;;;;;;;55.60;45.20;;;;;;;9.82;100.00;96552.72;4986538;28;20210;-61
2024/02/08 05:16:06;;;;;;;73.32;53.63;;;;;;;9.82;100.00;96559.66;4981423;28;21607;-59
2024/02/08 05:18:32;;;;;;;32.25;13.13;;;;;;;9.62;100.00;96556.63;4983840;28;20457;-60
2024/02/08 05:20:57;;;;;;;53.85;13.90;;;;;;;9.58;100.00;96552.38;4983147;28;20599;-62
2024/02/08 05:23:25;;;;;;;44.92;14.60;;;;;;;9.53;100.00;96554.25;4982843;28;20091;-63
2024/02/08 05:25:53;;;;;;;90.68;60.53;;;;;;;9.60;100.00;96552.38;4983103;28;20066;-61
2024/02/08 05:28:22;;;;;;;61.70;47.88;;;;;;;9.77;100.00;96550.22;4985649;28;20034;-59
2024/02/08 05:30:49;;;;;;;39.05;12.52;;;;;;;9.59;100.00;96550.66;4981084;28;20065;-63
2024/02/08 05:33:15;;;;;;;52.33;40.60;;;;;;;9.54;100.00;96552.50;4983387;28;20038;-62
2024/02/08 05:35:44;;;;;;;45.38;17.00;;;;;;;9.59;100.00;96551.53;4983073;28;20498;-60
2024/02/08 05:38:09;;;;;;;51.80;32.13;;;;;;;9.57;100.00;96547.25;4979901;28;20022;-62
2024/02/08 05:40:41;;;;;;;53.45;38.28;;;;;;;9.93;100.00;96554.22;4983684;28;20034;-60
2024/02/08 05:43:07;;;;;;;49.10;15.50;;;;;;;9.72;100.00;96549.50;4980625;28;20523;-63
2024/02/08 05:45:33;;;;;;;28.48;12.30;;;;;;;9.93;100.00;96559.41;4982404;28;20258;-59
2024/02/08 05:48:05;;;;;;;46.78;12.80;;;;;;;10.05;100.00;96555.69;4982526;28;20126;-61
2024/02/08 05:50:32;;;;;;;52.95;40.53;;;;;;;10.02;100.00;96552.25;4981828;28;20038;-62
2024/02/08 05:52:58;;;;;;;61.78;15.32;;;;;;;9.81;100.00;96550.16;4985495;28;20093;-61
2024/02/08 05:55:27;;;;;;;47.25;15.27;;;;;;;9.62;100.00;96548.00;4988871;28;20064;-61
2024/02/08 05:57:52;;;;;;;69.28;43.92;;;;;;;9.93;100.00;96539.50;4986294;28;20034;-62
2024/02/08 06:00:45;;;;;;;70.07;62.53;;;;;;;10.05;100.00;96540.09;4985891;28;20053;-60
2024/02/08 06:03:17;;;;;;;;;;;;;;;9.93;100.00;96539.50;4987272;28;20053;-59
2024/02/08 06:05:49;;;;;;;48.17;14.70;;;;;;;9.93;100.00;96542.09;4986743;28;19922;-62
2024/02/08 06:08:25;;;;;;;38.77;12.33;;;;;;;9.95;100.00;96545.47;4988744;28;20030;-60
2024/02/08 06:10:52;;;;;;;40.33;12.65;;;;;;;9.95;100.00;96542.88;4984518;28;20033;-61
2024/02/08 06:13:22;;;;;;;31.30;13.98;;;;;;;10.15;100.00;96544.16;4987499;28;20034;-62
2024/02/08 06:15:50;;;;;;;27.23;12.13;;;;;;;10.54;100.00;96543.19;4988304;28;20315;-64
2024/02/08 06:18:30;;;;;;;51.03;14.25;;;;;;;10.27;100.00;96543.00;4986507;28;20033;-62
2024/02/08 06:21:12;;;;;;;50.90;12.02;;;;;;;10.13;100.00;96543.31;4985785;28;20426;-62
2024/02/08 06:23:43;;;;;;;42.35;12.95;;;;;;;10.22;100.00;96545.72;4988944;28;20030;-64
2024/02/08 06:28:46;;;;;;;39.67;12.05;;;;;;;9.90;100.00;96549.94;4985145;28;20076;-61
2024/02/08 06:31:17;;;;;;;136.27;123.90;;;;;;;9.88;100.00;96549.13;4985755;28;20046;-59
2024/02/08 06:36:58;;;;;;;86.25;50.67;;;;;;;10.40;100.00;96544.38;4990728;28;20096;-63
2024/02/08 06:39:28;;;;;;;51.92;13.30;;;;;;;10.47;100.00;96542.50;4986480;28;20129;-60
2024/02/08 06:42:07;;;;;;;51.55;17.48;;;;;;;9.95;100.00;96545.47;4984105;28;20486;-59
2024/02/08 06:47:54;;;;;;;72.82;19.50;;;;;;;9.48;100.00;96530.13;4985907;28;20403;-59
2024/02/08 07:37:18;;;;;;;60.58;14.60;;;;;;;9.57;100.00;96566.25;4984866;28;20053;-58
2024/02/08 07:39:53;;;;;;;68.72;52.72;;;;;;;9.79;100.00;96557.97;4985534;28;20037;-61
2024/02/08 07:42:29;;;;;;;41.08;23.25;;;;;;;9.87;100.00;96563.84;4985976;28;20078;-59
2024/02/08 07:45:06;;;;;;;40.95;17.40;;;;;;;9.76;100.00;96558.06;4988061;28;20029;-60
2024/02/08 07:47:33;;;;;;;31.02;12.43;;;;;;;9.92;100.00;96566.34;4985391;28;20057;-58
2024/02/08 07:50:04;;;;;;;49.85;14.82;;;;;;;9.89;100.00;96563.81;4984405;28;20477;-60
2024/02/08 07:53:19;;;;;;;54.30;13.55;;;;;;;10.27;100.00;96559.44;4985227;28;20038;-59
2024/02/08 07:57:58;;;;;;;188.43;168.98;;;;;;;10.06;100.00;96554.78;4985105;28;20026;-60
2024/02/08 08:03:08;;;;;;;64.43;15.40;;;;;;;10.27;100.00;96559.44;4985940;28;20026;-58
2024/02/08 08:05:42;;;;;;;37.47;15.82;;;;;;;10.35;100.00;96551.44;4988292;28;20038;-60
2024/02/08 08:08:24;;;;;;;115.25;103.47;;;;;;;10.50;100.00;96549.38;4986059;28;20739;-61
2024/02/08 08:10:56;;;;;;;55.08;44.17;;;;;;;10.54;100.00;96554.44;4984307;28;20410;-59
2024/02/08 08:13:50;;;;;;;44.78;39.63;;;;;;;10.46;100.00;96548.59;4986629;28;20030;-60
2024/02/08 08:19:09;;;;;;;100.82;89.88;;;;;;;10.45;100.00;96540.84;4999378;28;20041;-59
2024/02/08 08:24:25;;;;;;;42.95;14.77;;;;;;;10.36;100.00;96547.09;4988924;28;20045;-59
2024/02/08 08:29:43;;;;;;;69.32;40.17;;;;;;;10.79;100.00;96550.34;4985067;28;20577;-59
2024/02/08 08:37:44;;;;;;;29.67;10.88;;;;;;;10.76;100.00;96547.84;4988271;28;20628;-59
2024/02/08 08:43:19;;;;;;;62.80;26.77;;;;;;;10.85;100.00;96536.31;4979243;28;20138;-60
2024/02/08 08:45:50;;;;;;;58.90;47.00;;;;;;;10.60;100.00;96540.44;4986205;28;20033;-59
2024/02/08 08:48:24;;;;;;;52.72;13.05;;;;;;;10.80;100.00;96537.28;4985288;28;20041;-60
2024/02/08 08:50:55;;;;;;;38.20;22.45;;;;;;;10.72;100.00;96541.00;4986001;28;20030;-59
2024/02/08 08:53:27;;;;;;;112.35;100.65;;;;;;;11.21;100.00;96541.34;4986224;28;20030;-58
2024/02/08 08:55:56;;;;;;;142.93;127.65;;;;;;;10.92;100.00;96543.88;4986666;28;20034;-60
2024/02/08 08:58:28;;;;;;;68.05;61.20;;;;;;;10.86;100.00;96538.00;4985672;28;20089;-61
2024/02/08 09:03:38;;;;;;;100.07;89.43;;;;;;;11.10;100.00;96548.63;4986086;28;20045;-60
2024/02/08 09:06:11;;;;;;;46.25;12.85;;;;;;;11.23;100.00;96549.13;4985621;28;20061;-59
2024/02/08 09:08:45;;;;;;;47.33;31.95;;;;;;;11.67;100.00;96557.38;4986977;28;20038;-59
2024/02/08 09:11:13;;;;;;;62.20;30.05;;;;;;;11.58;100.00;96552.44;4983851;28;20335;-58
2024/02/08 09:13:44;;;;;;;41.53;25.45;;;;;;;11.90;100.00;96547.97;4988862;28;20116;-58
2024/02/08 09:21:45;;;;;;;35.47;10.70;;;;;;;11.50;100.00;96557.84;4985218;28;20640;-60
2024/02/08 09:24:17;;;;;;;78.95;13.85;;;;;;;11.06;100.00;96559.13;4982382;28;20022;-60
2024/02/08 09:26:52;;;;;;;34.60;24.20;;;;;;;11.39;100.00;96554.75;4990756;28;20045;-61
2024/02/08 09:29:23;;;;;;;39.70;10.15;;;;;;;11.24;100.00;96556.06;4993474;28;20026;-59
2024/02/08 09:31:57;;;;;;;122.88;107.00;;;;;;;11.55;100.00;96560.34;4992160;28;20033;-58
2024/02/08 09:34:53;;;;;;;19.92;8.55;;;;;;;11.53;100.00;96560.38;4991619;28;20042;-61
2024/02/08 09:37:15;;;;;;;34.72;11.43;;;;;;;11.59;100.00;96556.75;4992177;28;20121;-60
2024/02/08 09:39:53;;;;;;;32.15;26.92;;;;;;;11.67;100.00;96556.50;4991962;28;20057;-58
2024/02/08 09:42:26;;;;;;;36.17;17.05;;;;;;;11.53;100.00;96551.69;4992009;28;20057;-59
2024/02/08 09:44:56;;;;;;;25.50;10.38;;;;;;;11.44;100.00;96548.47;4993938;28;20085;-60
2024/02/08 09:47:26;;;;;;;34.20;15.40;;;;;;;11.78;100.00;96557.03;4992483;28;20073;-58
2024/02/08 09:50:07;;;;;;;22.40;12.10;;;;;;;11.24;100.00;96559.47;4992125;28;20034;-62
2024/02/08 09:52:45;;;;;;;27.70;9.57;;;;;;;11.51;100.00;96556.13;4989385;28;20045;-59
2024/02/08 09:55:18;;;;;;;61.83;40.15;;;;;;;11.87;100.00;96550.66;4988743;28;20303;-60
2024/02/08 09:57:47;;;;;;;43.33;10.43;;;;;;;11.75;100.00;96549.31;4994415;28;20080;-59
2024/02/08 10:03:10;;;;;;;67.32;54.08;;;;;;;9.75;100.00;96553.75;4994005;28;20042;-60
2024/02/08 10:05:52;;;;;;;29.90;15.18;;;;;;;9.51;100.00;96546.50;4991832;28;20056;-59
2024/02/08 10:08:31;;;;;;;26.00;17.52;;;;;;;9.36;100.00;96542.50;4993414;28;20420;-59
2024/02/08 10:11:23;;;;;;;174.55;157.40;;;;;;;9.43;100.00;96542.38;4989983;28;20501;-57
2024/02/08 10:13:56;;;;;;;85.18;76.40;;;;;;;9.45;100.00;96538.84;4994804;28;20030;-59
2024/02/08 10:19:24;;;;;;;57.33;43.25;;;;;;;9.65;100.00;96540.13;4991538;28;20041;-60
2024/02/08 10:22:01;;;;;;;61.80;55.53;;;;;;;9.58;100.00;96535.97;4990006;28;20502;-58
2024/02/08 10:27:19;;;;;;;36.85;15.35;;;;;;;9.70;100.00;96537.44;5002528;28;20069;-59
2024/02/08 10:29:56;;;;;;;59.17;36.22;;;;;;;9.67;100.00;96530.56;4989653;28;20057;-60
2024/02/08 10:32:27;;;;;;;77.82;66.00;;;;;;;10.14;100.00;96529.47;4991573;28;20034;-62
2024/02/08 10:35:13;;;;;;;47.70;13.80;;;;;;;10.40;100.00;96523.59;4992942;28;20030;-59
2024/02/08 10:37:47;;;;;;;27.98;14.57;;;;;;;10.75;100.00;96520.97;4992055;28;20104;-59
2024/02/08 10:40:32;;;;;;;56.65;18.15;;;;;;;10.84;100.00;96519.00;4989441;28;20535;-62
2024/02/08 10:42:59;;;;;;;26.98;8.48;;;;;;;10.88;100.00;96518.88;4991569;28;20053;-60
2024/02/08 10:45:25;;;;;;;28.13;8.63;;;;;;;10.94;100.00;96520.44;4990687;28;20307;-62
2024/02/08 10:47:55;;;;;;;51.00;45.97;;;;;;;10.76;100.00;96517.47;4993579;28;20578;-59
2024/02/08 10:50:21;;;;;;;50.63;26.70;;;;;;;10.72;100.00;96515.84;4989357;28;20022;-61
2024/02/08 10:52:51;;;;;;;23.08;9.60;;;;;;;10.91;100.00;96513.59;4991128;28;20033;-60
2024/02/08 10:55:18;;;;;;;41.85;12.93;;;;;;;11.28;100.00;96503.00;4989564;28;20534;-62
2024/02/08 11:08:50;;;;;;;37.78;9.93;;;;;;;11.68;100.00;96480.06;4989290;28;20026;-60
2024/02/08 11:11:20;;;;;;;69.53;33.08;;;;;;;12.03;100.00;96479.81;4987489;28;20052;-61
2024/02/08 11:13:53;;;;;;;26.55;8.75;;;;;;;11.93;100.00;96466.25;4991402;28;20038;-61
2024/02/08 11:16:33;;;;;;;;;;;;;;;11.91;100.00;96468.91;4988080;28;20038;-60
2024/02/08 11:19:04;;;;;;;22.45;8.68;;;;;;;11.99;100.00;96468.63;4992491;28;19913;-62
2024/02/08 11:21:45;;;;;;;78.10;69.05;;;;;;;11.64;100.00;96458.50;4989537;28;20386;-60
2024/02/08 11:24:38;;;;;;;52.25;39.00;;;;;;;12.16;100.00;96464.66;4991371;28;20220;-61
2024/02/08 11:27:04;;;;;;;46.72;40.20;;;;;;;11.72;100.00;96451.28;4991716;28;20046;-60
2024/02/08 11:29:41;;;;;;;28.48;14.95;;;;;;;12.39;100.00;96444.78;4989724;28;20705;-61
2024/02/08 11:32:16;;;;;;;37.67;10.15;;;;;;;12.25;100.00;96435.66;4990195;28;20176;-61
2024/02/08 11:34:44;;;;;;;37.45;33.17;;;;;;;12.17;100.00;96432.50;4991186;28;20150;-60
2024/02/08 11:37:17;;;;;;;52.70;20.17;;;;;;;12.27;100.00;96428.66;4987018;28;20044;-60
2024/02/08 11:39:47;;;;;;;21.92;13.30;;;;;;;12.43;100.00;96433.31;4991818;28;20072;-60
2024/02/08 11:42:17;;;;;;;78.15;62.65;;;;;;;12.16;100.00;96433.38;4989809;28;20030;-60
2024/02/08 11:44:43;;;;;;;34.42;20.88;;;;;;;12.22;100.00;96433.19;4991586;28;20032;-61
2024/02/08 11:47:23;;;;;;;31.55;13.30;;;;;;;12.26;100.00;96431.31;4988881;28;20042;-60
2024/02/08 11:50:00;;;;;;;110.18;99.03;;;;;;;12.29;100.00;96431.19;4990346;28;20028;-60
2024/02/08 11:52:27;;;;;;;26.50;12.27;;;;;;;12.65;100.00;96430.78;4990276;28;20041;-60
2024/02/08 11:55:10;;;;;;;30.85;17.58;;;;;;;12.00;100.00;96426.06;4989425;28;20025;-60
2024/02/08 11:57:40;;;;;;;21.40;11.20;;;;;;;12.29;100.00;96413.78;4989597;28;20545;-61
2024/02/08 12:00:16;;;;;;;49.95;44.47;;;;;;;12.47;100.00;96414.06;4991441;28;20097;-62
2024/02/08 12:02:47;;;;;;;29.73;18.80;;;;;;;12.55;100.00;96414.59;4990759;28;20069;-60
2024/02/08 12:05:16;;;;;;;97.18;82.28;;;;;;;12.30;100.00;96412.03;4989012;28;20105;-63
2024/02/08 12:07:45;;;;;;;34.03;24.52;;;;;;;12.41;100.00;96404.69;4989350;28;20030;-60
2024/02/08 12:10:15;;;;;;;109.30;98.22;;;;;;;12.75;100.00;96393.03;4987907;28;20030;-62
2024/02/08 12:12:45;;;;;;;22.88;8.25;;;;;;;12.69;100.00;96395.84;4989285;28;20018;-60
2024/02/08 12:15:12;;;;;;;80.05;72.22;;;;;;;12.85;100.00;96393.50;4988659;28;20018;-62
2024/02/08 12:17:40;;;;;;;31.58;9.73;;;;;;;12.65;100.00;96390.81;4989019;28;20017;-60
2024/02/08 12:20:12;;;;;;;70.07;62.63;;;;;;;12.81;100.00;96391.09;4989559;28;20022;-62
2024/02/08 12:22:41;;;;;;;73.88;62.97;;;;;;;12.29;100.00;96387.72;4988537;28;20034;-60
2024/02/08 12:25:15;;;;;;;47.75;33.30;;;;;;;11.72;100.00;96387.91;4988712;28;20037;-60
2024/02/08 12:27:48;;;;;;;16.42;8.15;;;;;;;11.83;100.00;96367.59;4989831;28;20124;-60
2024/02/08 12:30:21;;;;;;;87.60;78.38;;;;;;;11.88;100.00;96366.56;4987727;28;20097;-60
2024/02/08 12:32:50;;;;;;;77.05;69.78;;;;;;;11.82;100.00;96375.44;4989657;28;20113;-61
2024/02/08 12:35:20;;;;;;;46.08;24.58;;;;;;;11.84;100.00;96364.06;4987499;28;20490;-61
2024/02/08 12:37:46;;;;;;;22.67;14.32;;;;;;;11.79;100.00;96360.78;4988463;28;20021;-61
2024/02/08 12:40:17;;;;;;;205.20;186.02;;;;;;;12.03;100.00;96353.00;4986311;28;20499;-61
2024/02/08 12:42:43;;;;;;;24.33;8.65;;;;;;;11.76;100.00;96347.84;4989342;28;20030;-61
2024/02/08 12:45:12;;;;;;;33.97;22.58;;;;;;;11.85;100.00;96342.31;4988372;28;20030;-59
2024/02/08 12:47:40;;;;;;;37.03;15.88;;;;;;;11.68;100.00;96342.06;4990781;28;20029;-59
2024/02/08 12:50:09;;;;;;;19.77;13.32;;;;;;;11.66;100.00;96334.28;4988855;28;20017;-62
2024/02/08 12:52:41;;;;;;;33.53;23.33;;;;;;;11.62;100.00;96342.28;4990672;28;20050;-60
2024/02/08 12:55:09;;;;;;;33.83;24.50;;;;;;;11.37;100.00;96337.88;4989568;28;20022;-62
2024/02/08 12:57:38;;;;;;;128.93;116.78;;;;;;;11.58;100.00;96336.34;4990343;28;20022;-60
2024/02/08 13:00:08;;;;;;;38.00;12.63;;;;;;;11.76;100.00;96332.22;4990392;28;20037;-60
2024/02/08 13:02:34;;;;;;;25.58;11.75;;;;;;;11.51;100.00;96330.47;4992220;28;20046;-60
2024/02/08 13:05:02;;;;;;;26.20;10.98;;;;;;;11.47;100.00;96328.84;4993684;28;20340;-60
2024/02/08 13:07:28;;;;;;;92.05;81.03;;;;;;;11.74;100.00;96321.03;4992346;28;20181;-61
2024/02/08 13:10:04;;;;;;;28.92;11.30;;;;;;;11.71;100.00;96315.91;4990847;28;20053;-60
2024/02/08 13:12:30;;;;;;;39.70;12.38;;;;;;;11.67;100.00;96309.13;4992649;28;20889;-61
2024/02/08 13:14:57;;;;;;;24.17;13.60;;;;;;;11.59;100.00;96315.44;4993583;28;20024;-60
2024/02/08 13:17:26;;;;;;;56.05;30.17;;;;;;;11.77;100.00;96309.66;4992133;28;20547;-59
2024/02/08 13:19:55;;;;;;;45.38;26.75;;;;;;;11.35;100.00;96304.09;4992107;28;20044;-60
2024/02/08 13:22:24;;;;;;;43.25;15.27;;;;;;;11.59;100.00;96305.00;4990030;28;20031;-60
2024/02/08 13:24:51;;;;;;;48.33;29.00;;;;;;;11.54;100.00;96298.28;4992746;28;20021;-61
2024/02/08 13:27:18;;;;;;;43.30;26.33;;;;;;;11.35;100.00;96304.09;4991592;28;20052;-63
2024/02/08 13:29:44;;;;;;;83.85;76.05;;;;;;;11.44;100.00;96293.38;4993659;28;20084;-58
2024/02/08 13:32:10;;;;;;;53.70;26.48;;;;;;;11.52;100.00;96300.94;4992257;28;20112;-59
2024/02/08 13:34:38;;;;;;;24.88;14.80;;;;;;;11.49;100.00;96294.97;4989423;28;20116;-59
2024/02/08 13:37:03;;;;;;;36.33;15.30;;;;;;;11.56;100.00;96294.72;4991687;28;20038;-60
2024/02/08 13:39:32;;;;;;;104.70;74.03;;;;;;;11.56;100.00;96292.13;4992057;28;20105;-59
2024/02/08 13:41:57;;;;;;;46.28;34.40;;;;;;;11.59;100.00;96285.94;4991733;28;20034;-59
2024/02/08 13:44:24;;;;;;;54.47;35.45;;;;;;;11.44;100.00;96282.97;4990196;28;20034;-61
2024/02/08 13:46:49;;;;;;;28.38;12.95;;;;;;;11.59;100.00;96289.38;4992449;28;20125;-60
2024/02/08 13:49:15;;;;;;;48.78;22.17;;;;;;;11.41;100.00;96285.69;4990069;28;20381;-59
2024/02/08 13:51:44;;;;;;;36.00;23.27;;;;;;;11.58;100.00;96279.88;4992827;28;20089;-59
2024/02/08 13:54:12;;;;;;;21.85;9.48;;;;;;;11.42;100.00;96283.91;4994152;28;20493;-59
2024/02/08 13:56:40;;;;;;;19.48;10.35;;;;;;;11.38;100.00;96274.50;4991156;28;20034;-59